Time;durP1;ratioP1;P1;durP2;ratioP2;P2;SDS_P1;SDS_P2;PMS_P1;PMS_P2;Temp;Humidity;BMP_temperature;BMP_pressure;BME280_temperature;BME280_humidity;BME280_pressure;Samples;Min_cycle;Max_cycle;Signal;HPM_P1;HPM_P2
2022/01/24 00:00:15;;;;;;;55.83;50.72;;;;;;;;;;4993841;28;20022;-84
2022/01/24 00:02:42;;;;;;;58.08;52.30;;;;;;;;;;5001970;28;20026;-85
2022/01/24 00:05:07;;;;;;;56.20;50.97;;;;;;;;;;5000185;28;20046;-84
2022/01/24 00:07:32;;;;;;;56.07;51.07;;;;;;;;;;5012847;28;20037;-85
2022/01/24 00:10:01;;;;;;;57.13;51.50;;;;;;;;;;5020152;28;20075;-85
2022/01/24 00:12:39;;;;;;;57.50;51.95;;;;;;;;;;5018898;28;20033;-85
2022/01/24 00:15:36;;;;;;;57.15;51.63;;;;;;;;;;5015142;28;20033;-85
2022/01/24 00:18:07;;;;;;;57.05;51.42;;;;;;;;;;5009216;28;20029;-84
2022/01/24 00:28:26;;;;;;;55.90;50.67;;;;;;;;;;5016971;28;20079;-85
2022/01/24 00:30:52;;;;;;;56.60;51.07;;;;;;;;;;5002565;28;20192;-85
2022/01/24 00:33:20;;;;;;;56.88;51.53;;;;;;;;;;5007476;28;20105;-85
2022/01/24 00:56:50;;;;;;;57.15;51.72;;;;;;;;;;4927722;29;20027;-85
2022/01/24 01:18:48;;;;;;;57.72;52.13;;;;;;;;;;5052186;28;20524;-80
2022/01/24 01:21:15;;;;;;;55.43;50.33;;;;;;;;;;5041178;28;20029;-79
2022/01/24 01:23:42;;;;;;;;;;;;;;;;;;5051071;28;20029;-80
2022/01/24 01:26:16;;;;;;;55.97;50.70;;;;;;;;;;5046488;28;20260;-83
2022/01/24 01:28:44;;;;;;;57.00;51.38;;;;;;;;;;5032680;28;20083;-81
2022/01/24 01:31:18;;;;;;;57.50;51.88;;;;;;;;;;5043547;28;20021;-82
2022/01/24 01:57:11;;;;;;;60.20;53.73;;;;;;;;;;5062284;28;20021;-80
2022/01/24 01:59:36;;;;;;;58.35;52.58;;;;;;;;;;5052350;28;20009;-79
2022/01/24 02:02:02;;;;;;;57.17;51.45;;;;;;;;;;5043924;28;20100;-80
2022/01/24 02:04:27;;;;;;;57.80;52.07;;;;;;;;;;5044675;28;20024;-81
2022/01/24 02:06:52;;;;;;;58.47;52.50;;;;;;;;;;5043627;28;20047;-81
2022/01/24 02:09:18;;;;;;;59.40;53.17;;;;;;;;;;5042687;28;20021;-81
2022/01/24 02:11:43;;;;;;;56.27;50.90;;;;;;;;;;5045648;28;20066;-79
2022/01/24 02:14:14;;;;;;;57.97;51.97;;;;;;;;;;5043225;28;20116;-81
2022/01/24 02:22:43;;;;;;;58.65;52.80;;;;;;;;;;5060154;28;20048;-80
2022/01/24 02:24:41;;;;;;;58.35;52.58;;;;;;;;;;5027469;28;20028;-81
2022/01/24 02:27:08;;;;;;;58.75;52.85;;;;;;;;;;5043886;28;20104;-81
2022/01/24 02:32:12;;;;;;;58.63;52.75;;;;;;;;;;5063028;28;20486;-84
2022/01/24 02:34:41;;;;;;;58.42;52.40;;;;;;;;;;5047767;28;20074;-81
2022/01/24 02:37:12;;;;;;;58.20;52.20;;;;;;;;;;5047072;28;20048;-81
2022/01/24 02:53:21;;;;;;;58.75;52.78;;;;;;;;;;5066006;28;20047;-80
2022/01/24 02:55:46;;;;;;;57.63;51.97;;;;;;;;;;5052403;28;20063;-80
2022/01/24 02:58:12;;;;;;;57.23;51.50;;;;;;;;;;5049998;28;20111;-82
2022/01/24 03:00:38;;;;;;;57.73;52.07;;;;;;;;;;5054030;28;20017;-83
2022/01/24 03:03:03;;;;;;;58.35;52.60;;;;;;;;;;5046837;28;20052;-83
2022/01/24 03:05:29;;;;;;;58.60;52.77;;;;;;;;;;5055521;28;20017;-83
2022/01/24 03:07:55;;;;;;;58.03;52.38;;;;;;;;;;5066980;28;20017;-82
2022/01/24 03:10:27;;;;;;;57.87;52.00;;;;;;;;;;5044655;28;20410;-82
2022/01/24 03:15:38;;;;;;;57.58;51.95;;;;;;;;;;5062792;28;20054;-81
2022/01/24 03:18:03;;;;;;;57.55;51.95;;;;;;;;;;5044167;28;20028;-81
2022/01/24 03:20:32;;;;;;;57.23;51.53;;;;;;;;;;5063406;28;20025;-81
2022/01/24 03:22:57;;;;;;;56.20;50.88;;;;;;;;;;5045593;28;20012;-80
2022/01/24 03:25:22;;;;;;;56.03;50.83;;;;;;;;;;5053800;28;20044;-82
2022/01/24 03:27:47;;;;;;;55.47;50.37;;;;;;;;;;5054740;28;20032;-81
2022/01/24 03:30:13;;;;;;;55.43;50.37;;;;;;;;;;5044801;28;20101;-81
2022/01/24 03:32:38;;;;;;;57.57;51.70;;;;;;;;;;5064768;28;20021;-84
2022/01/24 03:35:07;;;;;;;55.17;50.13;;;;;;;;;;5037515;28;20032;-81
2022/01/24 03:37:33;;;;;;;57.15;51.60;;;;;;;;;;5046613;28;20032;-83
2022/01/24 03:39:58;;;;;;;58.10;52.15;;;;;;;;;;5049826;28;20085;-79
2022/01/24 03:42:23;;;;;;;58.40;52.40;;;;;;;;;;5044616;28;20028;-79
2022/01/24 03:44:55;;;;;;;57.23;51.07;;;;;;;;;;5044661;28;20052;-78
2022/01/24 03:47:42;;;;;;;57.70;51.80;;;;;;;;;;5043152;28;20120;-79
2022/01/24 03:50:09;;;;;;;57.23;51.53;;;;;;;;;;5044295;28;20021;-80
2022/01/24 03:52:34;;;;;;;59.60;53.08;;;;;;;;;;5042516;28;20040;-80
2022/01/24 03:55:01;;;;;;;59.37;53.10;;;;;;;;;;5042375;28;20447;-78
2022/01/24 03:57:26;;;;;;;56.58;51.00;;;;;;;;;;5055419;28;20035;-79
2022/01/24 03:59:52;;;;;;;55.93;50.67;;;;;;;;;;5043667;28;20105;-80
2022/01/24 04:02:20;;;;;;;58.50;52.43;;;;;;;;;;5037778;28;20388;-80
2022/01/24 04:04:45;;;;;;;56.05;50.58;;;;;;;;;;5041587;28;20394;-80
2022/01/24 04:07:10;;;;;;;57.97;51.93;;;;;;;;;;5037741;28;20033;-78
2022/01/24 04:09:38;;;;;;;55.63;50.40;;;;;;;;;;5058826;28;20518;-79
2022/01/24 04:12:04;;;;;;;57.20;51.63;;;;;;;;;;5038497;28;20448;-81
2022/01/24 04:14:40;;;;;;;56.58;51.00;;;;;;;;;;5059271;28;20021;-80
2022/01/24 04:22:08;;;;;;;56.95;51.42;;;;;;;;;;5056036;28;20044;-79
2022/01/24 04:24:37;;;;;;;58.20;52.17;;;;;;;;;;5042988;28;20028;-79
2022/01/24 04:27:03;;;;;;;57.28;51.50;;;;;;;;;;5038881;28;20021;-79
2022/01/24 04:29:28;;;;;;;57.67;51.97;;;;;;;;;;5044289;28;20025;-81
2022/01/24 04:31:53;;;;;;;57.97;52.00;;;;;;;;;;5052989;28;20024;-79
2022/01/24 04:34:19;;;;;;;56.63;51.00;;;;;;;;;;5030260;28;20025;-77
2022/01/24 04:36:44;;;;;;;66.27;54.93;;;;;;;;;;5031287;28;20048;-80
2022/01/24 04:39:10;;;;;;;57.07;51.47;;;;;;;;;;5036358;28;20017;-80
2022/01/24 04:41:39;;;;;;;57.85;51.92;;;;;;;;;;5041802;28;20072;-79
2022/01/24 04:47:12;;;;;;;61.03;53.70;;;;;;;;;;5051086;28;20017;-78
2022/01/24 04:52:47;;;;;;;57.20;51.70;;;;;;;;;;5048666;28;20040;-80
2022/01/24 04:55:13;;;;;;;56.70;51.15;;;;;;;;;;5027345;28;20074;-80
2022/01/24 04:57:38;;;;;;;56.42;51.20;;;;;;;;;;5034711;28;20588;-81
2022/01/24 05:00:05;;;;;;;59.50;53.20;;;;;;;;;;5044910;28;20041;-81
2022/01/24 05:02:33;;;;;;;59.67;53.58;;;;;;;;;;5054251;28;20070;-79
2022/01/24 05:04:59;;;;;;;58.20;52.47;;;;;;;;;;5039224;28;20012;-79
2022/01/24 05:07:24;;;;;;;60.42;53.85;;;;;;;;;;5046064;28;20406;-80
2022/01/24 05:12:25;;;;;;;57.20;51.53;;;;;;;;;;5043378;28;20482;-78
2022/01/24 05:25:47;;;;;;;59.38;53.10;;;;;;;;;;5050884;28;20020;-79
2022/01/24 05:28:13;;;;;;;58.17;51.97;;;;;;;;;;5031411;28;20029;-80
2022/01/24 05:30:38;;;;;;;59.27;53.10;;;;;;;;;;5036647;28;20025;-78
2022/01/24 05:33:03;;;;;;;57.83;51.57;;;;;;;;;;5061555;28;20013;-79
2022/01/24 05:35:29;;;;;;;61.00;53.33;;;;;;;;;;5048194;28;20048;-79
2022/01/24 05:37:54;;;;;;;59.03;53.07;;;;;;;;;;5049481;28;20014;-78
2022/01/24 05:40:19;;;;;;;59.53;53.07;;;;;;;;;;5057328;28;20075;-83
2022/01/24 05:42:44;;;;;;;67.73;56.00;;;;;;;;;;5041959;28;20020;-82
2022/01/24 05:45:10;;;;;;;59.73;52.93;;;;;;;;;;5032823;28;20565;-82
2022/01/24 05:47:38;;;;;;;59.63;53.57;;;;;;;;;;5046624;28;20115;-83
2022/01/24 05:50:04;;;;;;;60.75;53.95;;;;;;;;;;5041340;28;20029;-83
2022/01/24 05:52:32;;;;;;;61.63;54.63;;;;;;;;;;5044380;28;20021;-84
2022/01/24 05:54:57;;;;;;;59.40;53.10;;;;;;;;;;5044912;28;20435;-83
2022/01/24 05:57:23;;;;;;;60.80;54.17;;;;;;;;;;5044529;28;20036;-82
2022/01/24 05:59:51;;;;;;;60.27;53.43;;;;;;;;;;5049276;28;20020;-82
2022/01/24 06:02:16;;;;;;;61.38;54.88;;;;;;;;;;5039035;28;20138;-80
2022/01/24 06:04:41;;;;;;;59.77;53.50;;;;;;;;;;5059223;28;20055;-81
2022/01/24 06:07:07;;;;;;;65.57;54.57;;;;;;;;;;5044070;28;20065;-81
2022/01/24 06:09:32;;;;;;;68.60;56.13;;;;;;;;;;5045770;28;20017;-82
2022/01/24 06:12:00;;;;;;;59.73;53.67;;;;;;;;;;5038641;28;20097;-81
2022/01/24 06:14:26;;;;;;;65.38;54.78;;;;;;;;;;5038632;28;20021;-79
2022/01/24 06:16:51;;;;;;;70.40;57.20;;;;;;;;;;5039357;28;20041;-78
2022/01/24 06:19:19;;;;;;;59.87;53.53;;;;;;;;;;5044254;28;20379;-80
2022/01/24 06:21:45;;;;;;;59.47;53.25;;;;;;;;;;5050538;28;20005;-79
2022/01/24 06:24:11;;;;;;;60.65;54.03;;;;;;;;;;5044103;28;20017;-80
2022/01/24 06:26:36;;;;;;;63.47;54.73;;;;;;;;;;5046192;28;20044;-79
2022/01/24 06:29:04;;;;;;;59.33;53.23;;;;;;;;;;5049578;28;20024;-82
2022/01/24 06:31:30;;;;;;;61.10;54.42;;;;;;;;;;5050236;28;20025;-84
2022/01/24 06:33:55;;;;;;;63.43;55.03;;;;;;;;;;5044968;28;20040;-80
2022/01/24 06:36:20;;;;;;;90.60;61.27;;;;;;;;;;5086109;22;20665;-81
2022/01/24 06:39:03;;;;;;;60.67;54.13;;;;;;;;;;5015949;28;20029;-81
2022/01/24 06:41:33;;;;;;;61.28;54.85;;;;;;;;;;5035295;28;20010;-83
2022/01/24 06:43:58;;;;;;;61.65;55.20;;;;;;;;;;5036406;28;20073;-82
2022/01/24 06:46:23;;;;;;;60.23;53.93;;;;;;;;;;5030230;28;20043;-82
2022/01/24 06:48:49;;;;;;;60.03;53.93;;;;;;;;;;5014821;28;20010;-84
2022/01/24 06:51:14;;;;;;;60.23;53.83;;;;;;;;;;5020326;28;20013;-83
2022/01/24 06:53:40;;;;;;;61.40;54.87;;;;;;;;;;5052721;28;20109;-82
2022/01/24 06:56:06;;;;;;;61.00;54.42;;;;;;;;;;5033361;28;20010;-82
2022/01/24 06:58:31;;;;;;;62.38;55.88;;;;;;;;;;5028460;28;20018;-82
2022/01/24 07:00:57;;;;;;;61.90;55.30;;;;;;;;;;5013055;28;20109;-82
2022/01/24 07:03:22;;;;;;;60.77;54.23;;;;;;;;;;5005655;28;20488;-83
2022/01/24 07:05:47;;;;;;;60.23;54.10;;;;;;;;;;5009962;28;20013;-83
2022/01/24 07:08:12;;;;;;;69.60;58.03;;;;;;;;;;5031729;28;20022;-83
2022/01/24 07:10:37;;;;;;;61.30;54.73;;;;;;;;;;5005946;28;20023;-84
2022/01/24 07:13:03;;;;;;;60.40;54.03;;;;;;;;;;5022336;28;20101;-84
2022/01/24 07:15:35;;;;;;;62.50;55.57;;;;;;;;;;5022369;28;20113;-84
2022/01/24 07:20:25;;;;;;;60.27;54.20;;;;;;;;;;5014692;28;20032;-81
2022/01/24 07:22:51;;;;;;;62.45;55.75;;;;;;;;;;5021735;28;20128;-80
2022/01/24 07:25:16;;;;;;;60.87;54.27;;;;;;;;;;5003491;28;20018;-80
2022/01/24 07:27:41;;;;;;;62.43;55.33;;;;;;;;;;5022062;28;20084;-82
2022/01/24 07:30:06;;;;;;;61.03;54.53;;;;;;;;;;5040320;28;20022;-85
2022/01/24 07:32:32;;;;;;;65.77;56.23;;;;;;;;;;5002038;28;20030;-85
2022/01/24 07:34:58;;;;;;;62.33;55.63;;;;;;;;;;5025380;28;20080;-83
2022/01/24 07:37:24;;;;;;;68.95;57.28;;;;;;;;;;5023337;28;20041;-84
2022/01/24 07:39:49;;;;;;;61.35;54.72;;;;;;;;;;5043414;28;20022;-83
2022/01/24 07:42:17;;;;;;;62.40;54.73;;;;;;;;;;5009032;28;20041;-84
2022/01/24 07:44:43;;;;;;;66.68;56.28;;;;;;;;;;5042475;28;20559;-87
2022/01/24 07:47:08;;;;;;;66.85;56.67;;;;;;;;;;5042600;28;20192;-85
2022/01/24 07:49:34;;;;;;;63.90;56.60;;;;;;;;;;5008229;28;20474;-84
2022/01/24 07:52:00;;;;;;;62.92;55.63;;;;;;;;;;4996098;28;20032;-82
2022/01/24 07:54:25;;;;;;;68.57;57.50;;;;;;;;;;5010826;28;20026;-83
2022/01/24 07:56:50;;;;;;;73.70;57.83;;;;;;;;;;5008752;28;20508;-83
2022/01/24 07:59:15;;;;;;;71.03;59.00;;;;;;;;;;5045696;28;20083;-84
2022/01/24 08:01:42;;;;;;;71.53;59.13;;;;;;;;;;5046731;28;20030;-84
2022/01/24 08:04:07;;;;;;;66.55;57.47;;;;;;;;;;5044572;28;20149;-83
2022/01/24 08:06:32;;;;;;;78.73;61.20;;;;;;;;;;5045766;28;20022;-83
2022/01/24 08:08:58;;;;;;;75.53;60.17;;;;;;;;;;5025459;28;20022;-84
2022/01/24 08:11:23;;;;;;;76.80;58.80;;;;;;;;;;5012163;28;20056;-83
2022/01/24 08:13:49;;;;;;;77.97;60.37;;;;;;;;;;5046392;28;20025;-83
2022/01/24 08:16:14;;;;;;;80.93;61.55;;;;;;;;;;5043533;28;20064;-84
2022/01/24 08:18:40;;;;;;;77.90;60.63;;;;;;;;;;5023435;28;20026;-83
2022/01/24 08:21:05;;;;;;;78.67;60.10;;;;;;;;;;5008053;28;20393;-84
2022/01/24 08:23:30;;;;;;;80.53;61.73;;;;;;;;;;5038804;28;20025;-84
2022/01/24 08:25:55;;;;;;;81.37;60.67;;;;;;;;;;5043727;28;20014;-82
2022/01/24 08:28:20;;;;;;;84.87;61.77;;;;;;;;;;5034308;28;20045;-81
2022/01/24 08:30:46;;;;;;;78.57;61.47;;;;;;;;;;5036438;28;20010;-83
2022/01/24 08:33:11;;;;;;;82.27;61.20;;;;;;;;;;5020671;28;20018;-81
2022/01/24 08:35:37;;;;;;;78.43;61.97;;;;;;;;;;5054359;28;20017;-81
2022/01/24 08:38:02;;;;;;;83.53;61.92;;;;;;;;;;5052358;28;20034;-83
2022/01/24 08:40:30;;;;;;;86.20;63.37;;;;;;;;;;5051583;28;20021;-81
2022/01/24 08:42:58;;;;;;;77.70;61.95;;;;;;;;;;5034286;28;20018;-82
2022/01/24 08:48:08;;;;;;;75.57;61.08;;;;;;;;;;5024413;28;20048;-83
2022/01/24 08:50:34;;;;;;;76.53;62.07;;;;;;;;;;5031288;28;20101;-82
2022/01/24 08:53:03;;;;;;;82.50;61.30;;;;;;;;;;5020122;28;20006;-83
2022/01/24 08:55:32;;;;;;;77.65;62.13;;;;;;;;;;5054527;28;20014;-80
2022/01/24 08:57:58;;;;;;;86.18;64.10;;;;;;;;;;5040741;28;20032;-82
2022/01/24 09:00:23;;;;;;;84.63;61.67;;;;;;;;;;5028903;28;20026;-81
2022/01/24 09:02:49;;;;;;;95.97;66.23;;;;;;;;;;5008712;28;20034;-84
2022/01/24 09:05:14;;;;;;;85.38;65.13;;;;;;;;;;5028568;28;20049;-83
2022/01/24 09:07:39;;;;;;;85.93;63.80;;;;;;;;;;5046395;28;20026;-85
2022/01/24 09:10:05;;;;;;;95.50;65.50;;;;;;;;;;5041054;28;20021;-84
2022/01/24 09:12:30;;;;;;;91.65;63.80;;;;;;;;;;5010354;28;20014;-84
2022/01/24 09:14:56;;;;;;;85.67;63.23;;;;;;;;;;5010445;28;20055;-85
2022/01/24 09:17:21;;;;;;;101.82;68.75;;;;;;;;;;5006749;28;20107;-82
2022/01/24 09:19:46;;;;;;;82.15;64.35;;;;;;;;;;5053056;28;20029;-83
2022/01/24 09:22:11;;;;;;;86.23;65.63;;;;;;;;;;5046938;28;20097;-82
2022/01/24 09:24:36;;;;;;;108.33;71.43;;;;;;;;;;5050556;28;20020;-84
2022/01/24 09:27:02;;;;;;;89.73;64.73;;;;;;;;;;5051638;28;20030;-82
2022/01/24 09:29:30;;;;;;;93.23;65.80;;;;;;;;;;5034883;28;20018;-84
2022/01/24 09:31:56;;;;;;;88.28;66.35;;;;;;;;;;5019170;28;20018;-81
2022/01/24 09:34:21;;;;;;;88.07;65.77;;;;;;;;;;5051024;28;20017;-81
2022/01/24 09:36:47;;;;;;;85.47;65.17;;;;;;;;;;5049503;28;20037;-83
2022/01/24 09:39:13;;;;;;;87.68;65.30;;;;;;;;;;5052160;28;20030;-82
2022/01/24 09:41:39;;;;;;;86.35;64.43;;;;;;;;;;5017664;28;20098;-82
2022/01/24 09:44:04;;;;;;;86.00;63.00;;;;;;;;;;5019038;28;20032;-82
2022/01/24 09:46:29;;;;;;;90.73;65.20;;;;;;;;;;5016767;28;20017;-84
2022/01/24 09:48:55;;;;;;;88.80;63.93;;;;;;;;;;5033801;28;20093;-83
2022/01/24 09:51:20;;;;;;;89.38;65.57;;;;;;;;;;5009033;28;20026;-84
2022/01/24 09:53:45;;;;;;;104.57;69.17;;;;;;;;;;5009450;28;20121;-84
2022/01/24 09:56:11;;;;;;;89.30;64.87;;;;;;;;;;5041268;28;20025;-83
2022/01/24 09:58:36;;;;;;;95.27;65.70;;;;;;;;;;5008058;28;20022;-83
2022/01/24 10:01:03;;;;;;;86.50;65.10;;;;;;;;;;5009718;28;20082;-84
2022/01/24 10:03:29;;;;;;;81.50;61.88;;;;;;;;;;5012191;28;20037;-86
2022/01/24 10:05:55;;;;;;;81.83;63.37;;;;;;;;;;5041242;28;20018;-85
2022/01/24 10:08:22;;;;;;;80.45;62.33;;;;;;;;;;5036774;28;20117;-83
2022/01/24 10:10:49;;;;;;;85.95;63.65;;;;;;;;;;5005792;28;20022;-85
2022/01/24 10:16:25;;;;;;;82.30;62.63;;;;;;;;;;5024137;28;20041;-83
2022/01/24 10:18:57;;;;;;;80.78;61.92;;;;;;;;;;5022647;28;20022;-83
2022/01/24 10:21:22;;;;;;;82.72;62.10;;;;;;;;;;5009080;28;20084;-83
2022/01/24 10:23:47;;;;;;;77.80;62.00;;;;;;;;;;5041634;28;20462;-83
2022/01/24 10:26:13;;;;;;;79.22;62.22;;;;;;;;;;5040910;28;20026;-84
2022/01/24 10:28:40;;;;;;;79.75;61.42;;;;;;;;;;5043824;28;20444;-83
2022/01/24 10:31:13;;;;;;;80.05;61.92;;;;;;;;;;5013089;28;20057;-84
2022/01/24 10:34:00;;;;;;;81.38;60.88;;;;;;;;;;5008303;28;20022;-85
2022/01/24 10:36:27;;;;;;;80.72;63.60;;;;;;;;;;5024378;28;20026;-83
2022/01/24 10:39:06;;;;;;;74.85;60.70;;;;;;;;;;5009490;28;20041;-85
2022/01/24 10:41:50;;;;;;;78.90;62.00;;;;;;;;;;5009280;28;20105;-84
2022/01/24 10:44:25;;;;;;;69.85;59.97;;;;;;;;;;5007547;28;20022;-84
2022/01/24 10:46:50;;;;;;;76.93;60.58;;;;;;;;;;5011769;28;20021;-84
2022/01/24 10:49:16;;;;;;;76.90;59.37;;;;;;;;;;5044154;28;20041;-83
2022/01/24 10:51:46;;;;;;;76.85;59.97;;;;;;;;;;5012229;28;20018;-83
2022/01/24 10:54:15;;;;;;;79.60;60.75;;;;;;;;;;5031073;28;20022;-83
2022/01/24 10:56:41;;;;;;;96.65;64.82;;;;;;;;;;5020517;28;20022;-81
2022/01/24 10:59:06;;;;;;;77.75;60.58;;;;;;;;;;5032652;28;20018;-83
2022/01/24 11:01:33;;;;;;;79.88;63.10;;;;;;;;;;5013680;28;20003;-84
2022/01/24 11:04:13;;;;;;;76.13;60.95;;;;;;;;;;5032820;28;20018;-85
2022/01/24 11:06:43;;;;;;;77.05;60.00;;;;;;;;;;5045585;28;20061;-84
2022/01/24 11:09:11;;;;;;;72.57;59.92;;;;;;;;;;5028117;28;20529;-84
2022/01/24 11:11:37;;;;;;;75.80;60.38;;;;;;;;;;5021463;28;20017;-82
2022/01/24 11:14:02;;;;;;;77.67;59.70;;;;;;;;;;5012595;28;20022;-85
2022/01/24 11:16:27;;;;;;;75.30;60.80;;;;;;;;;;5011953;28;20045;-83
2022/01/24 11:18:53;;;;;;;76.67;59.13;;;;;;;;;;5043882;28;20037;-82
2022/01/24 11:21:18;;;;;;;72.95;59.20;;;;;;;;;;5012655;28;20014;-84
2022/01/24 11:23:44;;;;;;;75.47;60.13;;;;;;;;;;5029712;28;20052;-84
2022/01/24 11:26:11;;;;;;;80.90;60.33;;;;;;;;;;5010929;28;20033;-83
2022/01/24 11:28:36;;;;;;;77.28;59.92;;;;;;;;;;5043879;28;20028;-84
2022/01/24 11:31:06;;;;;;;74.37;59.80;;;;;;;;;;5016509;28;20054;-84
2022/01/24 11:33:40;;;;;;;79.47;60.13;;;;;;;;;;5008928;28;20244;-83
2022/01/24 11:36:07;;;;;;;80.97;60.25;;;;;;;;;;4995062;28;20029;-82
2022/01/24 11:38:43;;;;;;;77.40;59.40;;;;;;;;;;5023772;28;20211;-83
2022/01/24 11:41:21;;;;;;;90.10;63.15;;;;;;;;;;5016544;28;20010;-82
2022/01/24 11:43:55;;;;;;;79.82;60.15;;;;;;;;;;4996945;28;20018;-83
2022/01/24 11:46:47;;;;;;;78.07;60.30;;;;;;;;;;5016971;28;20018;-84
2022/01/24 11:49:25;;;;;;;78.57;59.92;;;;;;;;;;5005793;28;20050;-83
2022/01/24 11:52:01;;;;;;;75.15;60.60;;;;;;;;;;5030250;28;20017;-83
2022/01/24 11:54:43;;;;;;;84.50;61.38;;;;;;;;;;5051745;28;20006;-84
2022/01/24 11:57:13;;;;;;;90.85;64.97;;;;;;;;;;5031997;28;20032;-83
2022/01/24 11:59:39;;;;;;;76.40;60.60;;;;;;;;;;5055843;28;20020;-84
2022/01/24 12:02:11;;;;;;;86.03;63.83;;;;;;;;;;5017666;28;20017;-83
2022/01/24 12:04:48;;;;;;;85.20;63.42;;;;;;;;;;5048834;28;20157;-84
2022/01/24 12:07:17;;;;;;;97.47;66.45;;;;;;;;;;5030128;28;20409;-82
2022/01/24 12:09:46;;;;;;;92.00;64.05;;;;;;;;;;5014730;28;20022;-83
2022/01/24 12:12:35;;;;;;;88.28;65.80;;;;;;;;;;5014143;28;20045;-84
2022/01/24 12:15:01;;;;;;;98.60;67.30;;;;;;;;;;5030816;28;20018;-84
2022/01/24 12:17:44;;;;;;;91.60;65.07;;;;;;;;;;5043076;28;20277;-84
2022/01/24 12:20:28;;;;;;;90.30;65.97;;;;;;;;;;5000699;28;20014;-84
2022/01/24 12:22:54;;;;;;;83.40;64.05;;;;;;;;;;4993737;28;20078;-85
2022/01/24 12:25:19;;;;;;;101.93;66.17;;;;;;;;;;5008548;28;20023;-85
2022/01/24 12:28:13;;;;;;;94.93;66.73;;;;;;;;;;5023404;28;20080;-84
2022/01/24 12:30:58;;;;;;;95.68;67.30;;;;;;;;;;5029351;28;20488;-85
2022/01/24 12:33:30;;;;;;;94.95;68.10;;;;;;;;;;5029796;28;20032;-84
2022/01/24 12:35:56;;;;;;;103.80;67.80;;;;;;;;;;5054045;28;20010;-84
2022/01/24 12:40:48;;;;;;;94.40;68.60;;;;;;;;;;5014673;28;20104;-80
2022/01/24 12:43:29;;;;;;;99.15;67.35;;;;;;;;;;5003029;28;20105;-80
2022/01/24 12:48:38;;;;;;;110.22;69.25;;;;;;;;;;5021675;28;20044;-79
2022/01/24 12:51:04;;;;;;;95.67;66.77;;;;;;;;;;4999432;28;20033;-78
2022/01/24 12:53:29;;;;;;;;;;;;;;;;;;5020013;28;20028;-79
2022/01/24 12:55:56;;;;;;;92.18;66.45;;;;;;;;;;5001517;28;20009;-80
2022/01/24 12:58:35;;;;;;;96.28;68.43;;;;;;;;;;5002113;28;20022;-80
2022/01/24 13:01:00;;;;;;;105.70;67.45;;;;;;;;;;4999028;28;20189;-78
2022/01/24 13:03:25;;;;;;;96.77;65.50;;;;;;;;;;5000310;28;20085;-78
2022/01/24 13:05:50;;;;;;;97.90;67.20;;;;;;;;;;5001750;28;20068;-79
2022/01/24 13:08:17;;;;;;;98.47;67.10;;;;;;;;;;5001502;28;20363;-79
2022/01/24 13:10:44;;;;;;;93.72;65.72;;;;;;;;;;4993783;28;20036;-78
2022/01/24 13:13:13;;;;;;;97.18;67.13;;;;;;;;;;5001107;28;20036;-79
2022/01/24 13:21:10;;;;;;;89.65;64.80;;;;;;;;;;5020823;28;20048;-77
2022/01/24 13:23:39;;;;;;;94.85;66.35;;;;;;;;;;5003542;28;20025;-79
2022/01/24 13:26:08;;;;;;;81.70;63.45;;;;;;;;;;5008467;28;20041;-79
2022/01/24 13:28:33;;;;;;;98.35;68.03;;;;;;;;;;5009670;28;20101;-75
2022/01/24 13:31:03;;;;;;;86.63;64.27;;;;;;;;;;5011046;28;20032;-77
2022/01/24 13:33:30;;;;;;;88.95;63.58;;;;;;;;;;5016316;28;20033;-77
2022/01/24 13:35:56;;;;;;;84.47;62.55;;;;;;;;;;5029480;28;20002;-76
2022/01/24 13:38:25;;;;;;;90.35;63.65;;;;;;;;;;5030936;28;20061;-77
2022/01/24 13:41:09;;;;;;;84.72;64.25;;;;;;;;;;5010866;28;20026;-80
2022/01/24 13:43:36;;;;;;;79.97;62.65;;;;;;;;;;5001205;28;20092;-78
2022/01/24 13:46:03;;;;;;;88.07;64.93;;;;;;;;;;5003499;28;20010;-80
2022/01/24 13:48:28;;;;;;;90.80;64.25;;;;;;;;;;5025535;28;20043;-79
2022/01/24 13:50:55;;;;;;;80.70;62.60;;;;;;;;;;4995763;28;20450;-81
2022/01/24 13:53:40;;;;;;;89.38;65.00;;;;;;;;;;5001564;28;20032;-81
2022/01/24 13:56:16;;;;;;;79.82;62.17;;;;;;;;;;5002117;28;20025;-80
2022/01/24 13:58:41;;;;;;;91.13;65.23;;;;;;;;;;5001239;28;20472;-79
2022/01/24 14:01:06;;;;;;;86.33;65.17;;;;;;;;;;5000753;28;20009;-80
2022/01/24 14:03:32;;;;;;;92.67;63.93;;;;;;;;;;5012313;28;20018;-81
2022/01/24 14:06:16;;;;;;;93.50;64.10;;;;;;;;;;5006605;28;20033;-81
2022/01/24 14:08:42;;;;;;;85.75;65.60;;;;;;;;;;5007356;28;20014;-78
2022/01/24 14:11:12;;;;;;;96.35;66.85;;;;;;;;;;5004341;28;20113;-80
2022/01/24 14:13:38;;;;;;;85.18;63.95;;;;;;;;;;5016493;28;20018;-80
2022/01/24 14:16:09;;;;;;;88.17;64.80;;;;;;;;;;5008498;28;20043;-78
2022/01/24 14:18:35;;;;;;;97.30;66.18;;;;;;;;;;5004101;28;20435;-80
2022/01/24 14:21:10;;;;;;;96.57;66.90;;;;;;;;;;4998041;28;20010;-79
2022/01/24 14:23:38;;;;;;;92.43;65.03;;;;;;;;;;5005432;28;20105;-80
2022/01/24 14:26:17;;;;;;;93.88;67.07;;;;;;;;;;5003548;28;20014;-78
2022/01/24 14:28:42;;;;;;;95.05;66.32;;;;;;;;;;5001738;28;20064;-79
2022/01/24 14:31:15;;;;;;;87.27;64.97;;;;;;;;;;5019177;28;20018;-79
2022/01/24 14:33:41;;;;;;;87.90;63.97;;;;;;;;;;5002062;28;20022;-79
2022/01/24 14:36:11;;;;;;;91.55;65.78;;;;;;;;;;5001960;28;20109;-79
2022/01/24 14:38:43;;;;;;;99.03;68.10;;;;;;;;;;5001740;28;20033;-80
2022/01/24 14:41:15;;;;;;;91.18;66.25;;;;;;;;;;4999941;28;20045;-78
2022/01/24 14:46:42;;;;;;;86.13;64.18;;;;;;;;;;4941164;29;20027;-79
2022/01/24 14:49:08;;;;;;;92.93;63.72;;;;;;;;;;4983432;28;20082;-79
2022/01/24 14:51:33;;;;;;;;;;;;;;;;;;5001700;28;20030;-78
2022/01/24 14:54:00;;;;;;;84.95;63.47;;;;;;;;;;5000064;28;19912;-79
2022/01/24 14:56:26;;;;;;;90.63;63.22;;;;;;;;;;5001533;28;20033;-77
2022/01/24 14:58:52;;;;;;;101.55;66.47;;;;;;;;;;4999326;28;20018;-78
2022/01/24 15:01:17;;;;;;;87.43;62.95;;;;;;;;;;4999966;28;20395;-78
2022/01/24 15:03:43;;;;;;;89.27;63.60;;;;;;;;;;5001529;28;20117;-81
2022/01/24 15:06:09;;;;;;;80.73;62.13;;;;;;;;;;5001960;28;20274;-78
2022/01/24 15:08:35;;;;;;;97.80;64.88;;;;;;;;;;5001154;28;20018;-80
2022/01/24 15:11:01;;;;;;;80.78;62.55;;;;;;;;;;4999173;28;20100;-79
2022/01/24 15:13:34;;;;;;;87.60;64.73;;;;;;;;;;5001761;28;20018;-79
2022/01/24 15:16:12;;;;;;;83.05;62.28;;;;;;;;;;5005296;28;20483;-78
2022/01/24 15:24:27;;;;;;;85.03;63.50;;;;;;;;;;5020107;28;20037;-79
2022/01/24 15:26:53;;;;;;;82.90;63.00;;;;;;;;;;5002665;28;20030;-79
2022/01/24 15:29:18;;;;;;;89.05;64.15;;;;;;;;;;4997000;28;20448;-78
2022/01/24 15:31:46;;;;;;;79.50;63.53;;;;;;;;;;4997972;28;20042;-81
2022/01/24 15:34:13;;;;;;;81.50;62.85;;;;;;;;;;5004094;28;20021;-81
2022/01/24 15:36:38;;;;;;;;;;;;;;;;;;5027993;28;20025;-80
2022/01/24 15:39:06;;;;;;;89.63;63.75;;;;;;;;;;5022675;28;20313;-79
2022/01/24 15:41:31;;;;;;;79.65;61.72;;;;;;;;;;5004716;28;20018;-80
2022/01/24 15:44:30;;;;;;;79.40;61.40;;;;;;;;;;5006272;28;20439;-79
2022/01/24 15:46:56;;;;;;;67.40;59.33;;;;;;;;;;5028790;28;20029;-78
2022/01/24 15:49:21;;;;;;;77.90;59.67;;;;;;;;;;5025659;28;20089;-78
2022/01/24 15:51:46;;;;;;;77.03;59.50;;;;;;;;;;5005158;28;20014;-80
2022/01/24 15:54:13;;;;;;;73.80;60.30;;;;;;;;;;5028050;28;20105;-79
2022/01/24 15:59:07;;;;;;;79.90;60.77;;;;;;;;;;5027306;28;20121;-79
2022/01/24 16:01:33;;;;;;;71.63;59.28;;;;;;;;;;4999098;28;20488;-78
2022/01/24 16:03:58;;;;;;;71.90;58.90;;;;;;;;;;5004017;28;20014;-79
2022/01/24 16:06:23;;;;;;;68.97;58.07;;;;;;;;;;5027274;28;20033;-77
2022/01/24 16:08:48;;;;;;;83.37;61.80;;;;;;;;;;5008023;28;20018;-80
2022/01/24 16:11:14;;;;;;;70.87;57.17;;;;;;;;;;5003432;28;20101;-80
2022/01/24 16:13:39;;;;;;;71.87;58.17;;;;;;;;;;5003358;28;20029;-79
2022/01/24 16:16:05;;;;;;;70.37;57.37;;;;;;;;;;5013662;28;20014;-80
2022/01/24 16:18:31;;;;;;;77.45;59.85;;;;;;;;;;5013166;28;20030;-79
2022/01/24 16:23:29;;;;;;;68.57;58.38;;;;;;;;;;5027408;28;20105;-80
2022/01/24 16:25:56;;;;;;;67.72;57.17;;;;;;;;;;5016125;28;20044;-78
2022/01/24 16:28:25;;;;;;;70.82;58.08;;;;;;;;;;5020048;28;20010;-78
2022/01/24 16:30:55;;;;;;;92.13;63.30;;;;;;;;;;5017724;28;20010;-79
2022/01/24 16:33:21;;;;;;;68.93;59.45;;;;;;;;;;5018120;28;20001;-78
2022/01/24 16:35:48;;;;;;;69.30;58.40;;;;;;;;;;5021498;28;20018;-78
2022/01/24 16:38:14;;;;;;;76.55;59.65;;;;;;;;;;5020747;28;20168;-79
2022/01/24 16:40:58;;;;;;;75.85;58.00;;;;;;;;;;5018139;28;20018;-79
2022/01/24 16:48:38;;;;;;;90.22;63.00;;;;;;;;;;5029399;28;20026;-78
2022/01/24 16:51:04;;;;;;;71.53;57.65;;;;;;;;;;5014238;28;20014;-78
2022/01/24 16:53:30;;;;;;;;;;;;;;;;;;5016957;28;20049;-79
2022/01/24 16:55:58;;;;;;;65.95;57.22;;;;;;;;;;5029920;28;19897;-78
2022/01/24 16:58:24;;;;;;;69.30;58.17;;;;;;;;;;5035178;28;20045;-78
2022/01/24 17:00:49;;;;;;;68.65;57.60;;;;;;;;;;5008766;28;20014;-79